sensor_id;sensor_type;location;lat;lon;timestamp;pressure;altitude;pressure_sealevel;temperature;humidity
24858;BME280;12935;50.782;6.074;2023-06-19T00:00:36;98867.44;;;22.19;78.16
24858;BME280;12935;50.782;6.074;2023-06-19T00:03:02;98871.97;;;22.16;78.79
24858;BME280;12935;50.782;6.074;2023-06-19T00:05:28;98866.13;;;22.14;79.38
24858;BME280;12935;50.782;6.074;2023-06-19T00:07:53;98870.78;;;22.02;79.48
24858;BME280;12935;50.782;6.074;2023-06-19T00:10:18;98860.31;;;21.97;80.86
24858;BME280;12935;50.782;6.074;2023-06-19T00:12:44;98860.03;;;21.95;81.35
24858;BME280;12935;50.782;6.074;2023-06-19T00:15:10;98868.78;;;21.88;81.42
24858;BME280;12935;50.782;6.074;2023-06-19T00:17:35;98851.66;;;21.75;82.42
24858;BME280;12935;50.782;6.074;2023-06-19T00:20:05;98859.47;;;21.71;83.17
24858;BME280;12935;50.782;6.074;2023-06-19T00:22:31;98858.41;;;21.68;83.13
24858;BME280;12935;50.782;6.074;2023-06-19T00:24:56;98866.19;;;21.64;82.69
24858;BME280;12935;50.782;6.074;2023-06-19T00:27:21;98861.31;;;21.59;82.97
24858;BME280;12935;50.782;6.074;2023-06-19T00:29:47;98864.09;;;21.59;83.51
24858;BME280;12935;50.782;6.074;2023-06-19T00:32:12;98869.16;;;21.61;83.39
24858;BME280;12935;50.782;6.074;2023-06-19T00:34:38;98873.13;;;21.54;83.30
24858;BME280;12935;50.782;6.074;2023-06-19T00:37:03;98874.78;;;21.46;83.63
24858;BME280;12935;50.782;6.074;2023-06-19T00:39:29;98877.66;;;21.52;83.45
24858;BME280;12935;50.782;6.074;2023-06-19T00:41:56;98875.63;;;21.52;83.58
24858;BME280;12935;50.782;6.074;2023-06-19T00:44:22;98878.78;;;21.45;84.11
24858;BME280;12935;50.782;6.074;2023-06-19T00:46:53;98883.09;;;21.46;83.29
24858;BME280;12935;50.782;6.074;2023-06-19T00:49:20;98882.06;;;21.44;83.77
24858;BME280;12935;50.782;6.074;2023-06-19T00:51:46;98884.06;;;21.43;83.25
24858;BME280;12935;50.782;6.074;2023-06-19T00:54:11;98880.25;;;21.41;83.21
24858;BME280;12935;50.782;6.074;2023-06-19T00:56:37;98891.63;;;21.43;83.08
24858;BME280;12935;50.782;6.074;2023-06-19T00:59:06;98878.16;;;21.35;83.15
24858;BME280;12935;50.782;6.074;2023-06-19T01:01:32;98890.34;;;21.38;83.06
24858;BME280;12935;50.782;6.074;2023-06-19T01:03:58;98872.91;;;21.23;83.02
24858;BME280;12935;50.782;6.074;2023-06-19T01:06:25;98883.75;;;21.21;83.18
24858;BME280;12935;50.782;6.074;2023-06-19T01:09:00;98888.59;;;21.26;83.69
24858;BME280;12935;50.782;6.074;2023-06-19T01:11:31;98882.66;;;21.18;85.19
24858;BME280;12935;50.782;6.074;2023-06-19T01:14:00;98890.06;;;21.21;85.31
24858;BME280;12935;50.782;6.074;2023-06-19T01:16:28;98891.13;;;21.24;84.42
24858;BME280;12935;50.782;6.074;2023-06-19T01:18:55;98874.63;;;21.20;84.16
24858;BME280;12935;50.782;6.074;2023-06-19T01:21:20;98893.50;;;21.31;84.21
24858;BME280;12935;50.782;6.074;2023-06-19T01:23:46;98887.84;;;21.25;84.21
24858;BME280;12935;50.782;6.074;2023-06-19T01:26:12;98899.53;;;21.29;83.63
24858;BME280;12935;50.782;6.074;2023-06-19T01:28:40;98890.13;;;21.27;83.22
24858;BME280;12935;50.782;6.074;2023-06-19T01:31:11;98892.38;;;21.23;84.13
24858;BME280;12935;50.782;6.074;2023-06-19T01:33:38;98897.50;;;21.15;84.59
24858;BME280;12935;50.782;6.074;2023-06-19T01:36:05;98903.34;;;21.17;84.67
24858;BME280;12935;50.782;6.074;2023-06-19T01:38:32;98906.03;;;21.26;85.02
24858;BME280;12935;50.782;6.074;2023-06-19T01:40:59;98910.16;;;21.31;83.94
24858;BME280;12935;50.782;6.074;2023-06-19T01:43:26;98921.00;;;21.29;84.32
24858;BME280;12935;50.782;6.074;2023-06-19T01:45:52;98910.94;;;21.31;83.64
24858;BME280;12935;50.782;6.074;2023-06-19T01:48:17;98909.69;;;21.32;83.29
24858;BME280;12935;50.782;6.074;2023-06-19T01:50:47;98927.72;;;21.37;83.54
24858;BME280;12935;50.782;6.074;2023-06-19T01:53:13;98925.13;;;21.33;83.60
24858;BME280;12935;50.782;6.074;2023-06-19T01:55:39;98930.19;;;21.35;83.58
24858;BME280;12935;50.782;6.074;2023-06-19T01:58:04;98933.44;;;21.33;83.60
24858;BME280;12935;50.782;6.074;2023-06-19T02:00:29;98933.16;;;21.31;84.77
24858;BME280;12935;50.782;6.074;2023-06-19T02:02:55;98936.91;;;21.28;84.42
24858;BME280;12935;50.782;6.074;2023-06-19T02:05:21;98935.84;;;21.26;84.67
24858;BME280;12935;50.782;6.074;2023-06-19T02:07:47;98946.09;;;21.05;87.97
24858;BME280;12935;50.782;6.074;2023-06-19T02:10:12;98955.06;;;20.85;90.78
24858;BME280;12935;50.782;6.074;2023-06-19T02:12:37;98960.31;;;20.83;90.69
24858;BME280;12935;50.782;6.074;2023-06-19T02:15:03;98961.25;;;20.65;94.16
24858;BME280;12935;50.782;6.074;2023-06-19T02:17:29;98965.38;;;20.46;97.81
24858;BME280;12935;50.782;6.074;2023-06-19T02:19:54;98966.78;;;20.65;95.91
24858;BME280;12935;50.782;6.074;2023-06-19T02:22:19;98981.16;;;20.64;98.23
24858;BME280;12935;50.782;6.074;2023-06-19T02:24:44;98975.41;;;20.67;98.15
24858;BME280;12935;50.782;6.074;2023-06-19T02:27:10;98978.31;;;20.73;97.54
24858;BME280;12935;50.782;6.074;2023-06-19T02:29:35;98973.91;;;20.43;100.00
24858;BME280;12935;50.782;6.074;2023-06-19T02:32:01;98979.78;;;20.36;100.00
24858;BME280;12935;50.782;6.074;2023-06-19T02:34:27;98988.34;;;20.47;100.00
24858;BME280;12935;50.782;6.074;2023-06-19T02:36:52;98985.78;;;20.43;100.00
24858;BME280;12935;50.782;6.074;2023-06-19T02:39:18;98984.25;;;20.42;100.00
24858;BME280;12935;50.782;6.074;2023-06-19T02:41:43;98978.88;;;20.39;100.00
24858;BME280;12935;50.782;6.074;2023-06-19T02:44:11;98981.00;;;20.44;100.00
24858;BME280;12935;50.782;6.074;2023-06-19T02:46:37;98989.50;;;20.40;100.00
24858;BME280;12935;50.782;6.074;2023-06-19T02:49:02;98991.75;;;20.18;100.00
24858;BME280;12935;50.782;6.074;2023-06-19T02:51:28;98987.44;;;20.17;100.00
24858;BME280;12935;50.782;6.074;2023-06-19T02:53:53;98999.25;;;20.03;100.00
24858;BME280;12935;50.782;6.074;2023-06-19T02:56:18;99002.53;;;19.92;100.00
24858;BME280;12935;50.782;6.074;2023-06-19T02:58:43;98992.28;;;19.74;100.00
24858;BME280;12935;50.782;6.074;2023-06-19T03:01:09;99013.00;;;19.88;100.00
24858;BME280;12935;50.782;6.074;2023-06-19T03:03:34;99014.13;;;19.81;100.00
24858;BME280;12935;50.782;6.074;2023-06-19T03:06:06;99010.72;;;19.86;100.00
24858;BME280;12935;50.782;6.074;2023-06-19T03:08:35;99013.69;;;19.83;100.00
24858;BME280;12935;50.782;6.074;2023-06-19T03:11:01;99020.47;;;19.73;100.00
24858;BME280;12935;50.782;6.074;2023-06-19T03:13:29;99018.25;;;19.86;100.00
24858;BME280;12935;50.782;6.074;2023-06-19T03:15:55;99020.78;;;19.75;100.00
24858;BME280;12935;50.782;6.074;2023-06-19T03:18:20;99023.84;;;19.77;100.00
24858;BME280;12935;50.782;6.074;2023-06-19T03:20:45;99025.66;;;19.89;100.00
24858;BME280;12935;50.782;6.074;2023-06-19T03:23:11;99031.63;;;19.96;100.00
24858;BME280;12935;50.782;6.074;2023-06-19T03:25:36;99041.81;;;19.90;100.00
24858;BME280;12935;50.782;6.074;2023-06-19T03:28:01;99047.66;;;19.92;100.00
24858;BME280;12935;50.782;6.074;2023-06-19T03:30:28;99048.59;;;19.89;100.00
24858;BME280;12935;50.782;6.074;2023-06-19T03:32:53;99040.44;;;19.86;100.00
24858;BME280;12935;50.782;6.074;2023-06-19T03:35:18;99063.69;;;19.88;100.00
24858;BME280;12935;50.782;6.074;2023-06-19T03:37:43;99072.28;;;20.00;100.00
24858;BME280;12935;50.782;6.074;2023-06-19T03:40:09;99072.59;;;20.02;100.00
24858;BME280;12935;50.782;6.074;2023-06-19T03:42:39;99079.97;;;20.05;100.00
24858;BME280;12935;50.782;6.074;2023-06-19T03:45:05;99080.44;;;20.03;100.00
24858;BME280;12935;50.782;6.074;2023-06-19T03:47:30;99086.03;;;19.94;100.00
24858;BME280;12935;50.782;6.074;2023-06-19T03:49:56;99083.56;;;19.87;100.00
24858;BME280;12935;50.782;6.074;2023-06-19T03:52:21;99089.94;;;19.78;100.00
24858;BME280;12935;50.782;6.074;2023-06-19T03:54:46;99091.78;;;19.81;100.00
24858;BME280;12935;50.782;6.074;2023-06-19T03:57:12;99095.78;;;19.80;100.00
24858;BME280;12935;50.782;6.074;2023-06-19T03:59:38;99097.78;;;19.71;100.00
24858;BME280;12935;50.782;6.074;2023-06-19T04:02:03;99098.66;;;19.86;100.00
24858;BME280;12935;50.782;6.074;2023-06-19T04:04:29;99104.66;;;19.93;100.00
24858;BME280;12935;50.782;6.074;2023-06-19T04:06:54;99102.25;;;19.77;100.00
24858;BME280;12935;50.782;6.074;2023-06-19T04:09:19;99102.66;;;19.85;100.00
24858;BME280;12935;50.782;6.074;2023-06-19T04:11:44;99106.38;;;19.91;100.00
24858;BME280;12935;50.782;6.074;2023-06-19T04:14:10;99109.75;;;19.95;100.00
24858;BME280;12935;50.782;6.074;2023-06-19T04:16:36;99111.09;;;20.00;100.00
24858;BME280;12935;50.782;6.074;2023-06-19T04:19:01;99108.78;;;20.07;100.00
24858;BME280;12935;50.782;6.074;2023-06-19T04:21:26;99122.97;;;20.09;100.00
24858;BME280;12935;50.782;6.074;2023-06-19T04:23:51;99118.94;;;20.10;100.00
24858;BME280;12935;50.782;6.074;2023-06-19T04:26:17;99123.28;;;20.02;100.00
24858;BME280;12935;50.782;6.074;2023-06-19T04:28:43;99124.69;;;19.98;100.00
24858;BME280;12935;50.782;6.074;2023-06-19T04:31:08;99118.53;;;19.93;100.00
24858;BME280;12935;50.782;6.074;2023-06-19T04:33:33;99119.97;;;19.80;100.00
24858;BME280;12935;50.782;6.074;2023-06-19T04:35:59;99131.63;;;19.93;100.00
24858;BME280;12935;50.782;6.074;2023-06-19T04:38:25;99123.31;;;19.93;100.00
24858;BME280;12935;50.782;6.074;2023-06-19T04:40:51;99128.41;;;19.85;100.00
24858;BME280;12935;50.782;6.074;2023-06-19T04:43:16;99125.63;;;19.85;100.00
24858;BME280;12935;50.782;6.074;2023-06-19T04:45:42;99113.75;;;19.85;100.00
24858;BME280;12935;50.782;6.074;2023-06-19T04:48:07;99118.72;;;19.81;100.00
24858;BME280;12935;50.782;6.074;2023-06-19T04:50:33;99109.19;;;19.82;100.00
24858;BME280;12935;50.782;6.074;2023-06-19T04:52:58;99105.59;;;19.90;100.00
24858;BME280;12935;50.782;6.074;2023-06-19T04:55:23;99100.31;;;20.02;100.00
24858;BME280;12935;50.782;6.074;2023-06-19T04:57:50;99101.28;;;19.99;100.00
24858;BME280;12935;50.782;6.074;2023-06-19T05:00:17;99105.59;;;19.90;100.00
24858;BME280;12935;50.782;6.074;2023-06-19T05:02:44;99105.75;;;19.96;100.00
24858;BME280;12935;50.782;6.074;2023-06-19T05:05:12;99104.03;;;19.99;100.00
24858;BME280;12935;50.782;6.074;2023-06-19T05:07:38;99102.78;;;20.09;100.00
24858;BME280;12935;50.782;6.074;2023-06-19T05:10:03;99101.75;;;19.97;100.00
24858;BME280;12935;50.782;6.074;2023-06-19T05:12:29;99111.56;;;20.07;100.00
24858;BME280;12935;50.782;6.074;2023-06-19T05:14:54;99112.13;;;20.20;100.00
24858;BME280;12935;50.782;6.074;2023-06-19T05:17:20;99115.16;;;20.31;100.00
24858;BME280;12935;50.782;6.074;2023-06-19T05:19:45;99121.47;;;20.41;100.00
24858;BME280;12935;50.782;6.074;2023-06-19T05:22:10;99128.75;;;20.29;100.00
24858;BME280;12935;50.782;6.074;2023-06-19T05:24:35;99137.66;;;20.33;100.00
24858;BME280;12935;50.782;6.074;2023-06-19T05:27:01;99137.06;;;20.39;100.00
24858;BME280;12935;50.782;6.074;2023-06-19T05:29:26;99139.19;;;20.44;100.00
24858;BME280;12935;50.782;6.074;2023-06-19T05:31:51;99141.91;;;20.53;100.00
24858;BME280;12935;50.782;6.074;2023-06-19T05:34:17;99130.81;;;20.53;100.00
24858;BME280;12935;50.782;6.074;2023-06-19T05:36:42;99144.16;;;20.63;100.00
24858;BME280;12935;50.782;6.074;2023-06-19T05:39:10;99137.22;;;20.68;100.00
24858;BME280;12935;50.782;6.074;2023-06-19T05:41:35;99147.59;;;20.58;100.00
24858;BME280;12935;50.782;6.074;2023-06-19T05:44:01;99136.28;;;20.71;100.00
24858;BME280;12935;50.782;6.074;2023-06-19T05:46:26;99141.44;;;20.87;100.00
24858;BME280;12935;50.782;6.074;2023-06-19T05:48:52;99135.09;;;20.87;100.00
24858;BME280;12935;50.782;6.074;2023-06-19T05:51:19;99136.94;;;20.90;100.00
24858;BME280;12935;50.782;6.074;2023-06-19T05:53:44;99132.56;;;20.74;100.00
24858;BME280;12935;50.782;6.074;2023-06-19T05:56:10;99146.84;;;20.82;100.00
24858;BME280;12935;50.782;6.074;2023-06-19T05:58:36;99143.44;;;20.87;100.00
24858;BME280;12935;50.782;6.074;2023-06-19T06:01:01;99143.72;;;20.89;100.00
24858;BME280;12935;50.782;6.074;2023-06-19T06:03:28;99143.25;;;20.90;100.00
24858;BME280;12935;50.782;6.074;2023-06-19T06:05:55;99144.59;;;20.71;100.00
24858;BME280;12935;50.782;6.074;2023-06-19T06:08:27;99152.94;;;20.71;100.00
24858;BME280;12935;50.782;6.074;2023-06-19T06:10:53;99157.72;;;20.71;100.00
24858;BME280;12935;50.782;6.074;2023-06-19T06:13:18;99156.16;;;20.46;100.00
24858;BME280;12935;50.782;6.074;2023-06-19T06:15:44;99159.28;;;20.62;100.00
24858;BME280;12935;50.782;6.074;2023-06-19T06:18:09;99167.28;;;20.70;100.00
24858;BME280;12935;50.782;6.074;2023-06-19T06:20:34;99163.59;;;20.63;100.00
24858;BME280;12935;50.782;6.074;2023-06-19T06:23:00;99174.13;;;20.59;100.00
24858;BME280;12935;50.782;6.074;2023-06-19T06:25:25;99172.69;;;20.64;100.00
24858;BME280;12935;50.782;6.074;2023-06-19T06:27:50;99179.41;;;20.81;100.00
24858;BME280;12935;50.782;6.074;2023-06-19T06:30:16;99169.50;;;20.89;100.00
24858;BME280;12935;50.782;6.074;2023-06-19T06:32:42;99180.63;;;20.80;100.00
24858;BME280;12935;50.782;6.074;2023-06-19T06:35:07;99191.19;;;20.76;100.00
24858;BME280;12935;50.782;6.074;2023-06-19T06:37:33;99189.81;;;20.95;100.00
24858;BME280;12935;50.782;6.074;2023-06-19T06:39:58;99190.38;;;21.09;100.00
24858;BME280;12935;50.782;6.074;2023-06-19T06:42:24;99189.13;;;21.10;100.00
24858;BME280;12935;50.782;6.074;2023-06-19T06:44:49;99186.53;;;21.06;100.00
24858;BME280;12935;50.782;6.074;2023-06-19T06:47:14;99198.66;;;21.18;100.00
24858;BME280;12935;50.782;6.074;2023-06-19T06:49:40;99189.94;;;21.01;100.00
24858;BME280;12935;50.782;6.074;2023-06-19T06:52:06;99190.84;;;21.07;100.00
24858;BME280;12935;50.782;6.074;2023-06-19T06:54:32;99206.00;;;20.97;100.00
24858;BME280;12935;50.782;6.074;2023-06-19T06:56:58;99210.22;;;20.92;100.00
24858;BME280;12935;50.782;6.074;2023-06-19T06:59:25;99204.84;;;21.13;100.00
24858;BME280;12935;50.782;6.074;2023-06-19T07:01:52;99202.25;;;21.09;100.00
24858;BME280;12935;50.782;6.074;2023-06-19T07:04:17;99204.28;;;21.09;100.00
24858;BME280;12935;50.782;6.074;2023-06-19T07:06:42;99206.94;;;21.27;100.00
24858;BME280;12935;50.782;6.074;2023-06-19T07:09:09;99199.03;;;21.34;100.00
24858;BME280;12935;50.782;6.074;2023-06-19T07:11:34;99195.19;;;21.32;100.00
24858;BME280;12935;50.782;6.074;2023-06-19T07:13:59;99220.78;;;21.36;100.00
24858;BME280;12935;50.782;6.074;2023-06-19T07:16:25;99229.22;;;21.18;100.00
24858;BME280;12935;50.782;6.074;2023-06-19T07:18:50;99233.00;;;21.06;100.00
24858;BME280;12935;50.782;6.074;2023-06-19T07:21:15;99227.44;;;21.06;100.00
24858;BME280;12935;50.782;6.074;2023-06-19T07:23:42;99231.78;;;21.30;100.00
24858;BME280;12935;50.782;6.074;2023-06-19T07:26:09;99227.00;;;21.31;100.00
24858;BME280;12935;50.782;6.074;2023-06-19T07:28:34;99227.06;;;21.22;100.00
24858;BME280;12935;50.782;6.074;2023-06-19T07:31:02;99240.41;;;21.32;100.00
24858;BME280;12935;50.782;6.074;2023-06-19T07:33:27;99232.72;;;21.51;100.00
24858;BME280;12935;50.782;6.074;2023-06-19T07:35:53;99236.91;;;21.47;100.00
24858;BME280;12935;50.782;6.074;2023-06-19T07:38:18;99239.44;;;21.59;100.00
24858;BME280;12935;50.782;6.074;2023-06-19T07:40:43;99248.50;;;21.69;100.00
24858;BME280;12935;50.782;6.074;2023-06-19T07:43:08;99234.47;;;21.63;100.00
24858;BME280;12935;50.782;6.074;2023-06-19T07:45:34;99235.28;;;21.79;100.00
24858;BME280;12935;50.782;6.074;2023-06-19T07:47:59;99236.06;;;21.94;100.00
24858;BME280;12935;50.782;6.074;2023-06-19T07:50:24;99235.66;;;22.10;99.88
24858;BME280;12935;50.782;6.074;2023-06-19T07:52:50;99236.59;;;22.07;98.89
24858;BME280;12935;50.782;6.074;2023-06-19T07:55:15;99237.78;;;22.15;98.31
24858;BME280;12935;50.782;6.074;2023-06-19T07:57:40;99236.91;;;22.38;96.54
24858;BME280;12935;50.782;6.074;2023-06-19T08:00:06;99236.03;;;22.47;93.41
24858;BME280;12935;50.782;6.074;2023-06-19T08:02:39;99232.47;;;22.61;93.24
24858;BME280;12935;50.782;6.074;2023-06-19T08:05:04;99244.69;;;22.79;91.07
24858;BME280;12935;50.782;6.074;2023-06-19T08:07:30;99235.41;;;22.87;91.71
24858;BME280;12935;50.782;6.074;2023-06-19T08:09:55;99229.88;;;22.58;89.83
24858;BME280;12935;50.782;6.074;2023-06-19T08:12:20;99233.81;;;22.51;91.67
24858;BME280;12935;50.782;6.074;2023-06-19T08:14:45;99246.88;;;22.60;90.63
24858;BME280;12935;50.782;6.074;2023-06-19T08:17:11;99247.47;;;22.79;87.85
24858;BME280;12935;50.782;6.074;2023-06-19T08:19:36;99253.31;;;22.81;85.70
24858;BME280;12935;50.782;6.074;2023-06-19T08:22:04;99243.44;;;22.65;85.76
24858;BME280;12935;50.782;6.074;2023-06-19T08:24:30;99233.72;;;22.60;86.21
24858;BME280;12935;50.782;6.074;2023-06-19T08:26:55;99257.41;;;22.70;85.08
24858;BME280;12935;50.782;6.074;2023-06-19T08:29:20;99237.63;;;22.83;83.00
24858;BME280;12935;50.782;6.074;2023-06-19T08:31:46;99242.72;;;23.20;80.93
24858;BME280;12935;50.782;6.074;2023-06-19T08:34:11;99239.66;;;22.97;80.32
24858;BME280;12935;50.782;6.074;2023-06-19T08:36:36;99243.00;;;22.87;80.52
24858;BME280;12935;50.782;6.074;2023-06-19T08:39:02;99255.81;;;22.79;80.53
24858;BME280;12935;50.782;6.074;2023-06-19T08:41:27;99254.13;;;23.01;79.22
24858;BME280;12935;50.782;6.074;2023-06-19T08:43:54;99243.63;;;23.31;78.39
24858;BME280;12935;50.782;6.074;2023-06-19T08:46:19;99256.47;;;23.23;78.38
24858;BME280;12935;50.782;6.074;2023-06-19T08:48:45;99255.94;;;23.39;76.82
24858;BME280;12935;50.782;6.074;2023-06-19T08:51:11;99256.06;;;23.51;74.57
24858;BME280;12935;50.782;6.074;2023-06-19T08:53:45;99247.09;;;23.61;74.49
24858;BME280;12935;50.782;6.074;2023-06-19T08:56:11;99256.44;;;23.58;72.87
24858;BME280;12935;50.782;6.074;2023-06-19T08:58:36;99265.44;;;23.68;73.12
24858;BME280;12935;50.782;6.074;2023-06-19T09:01:02;99268.84;;;23.77;72.62
24858;BME280;12935;50.782;6.074;2023-06-19T09:03:27;99275.25;;;23.43;71.01
24858;BME280;12935;50.782;6.074;2023-06-19T09:05:53;99275.69;;;23.56;72.04
24858;BME280;12935;50.782;6.074;2023-06-19T09:08:19;99269.75;;;23.69;72.09
24858;BME280;12935;50.782;6.074;2023-06-19T09:11:01;99269.16;;;23.59;73.35
24858;BME280;12935;50.782;6.074;2023-06-19T09:13:28;99265.13;;;24.06;70.52
24858;BME280;12935;50.782;6.074;2023-06-19T09:16:02;99274.84;;;24.37;66.24
24858;BME280;12935;50.782;6.074;2023-06-19T09:18:42;99263.06;;;24.27;65.57
24858;BME280;12935;50.782;6.074;2023-06-19T09:21:15;99268.38;;;24.25;66.76
24858;BME280;12935;50.782;6.074;2023-06-19T09:23:40;99264.97;;;24.41;65.90
24858;BME280;12935;50.782;6.074;2023-06-19T09:26:06;99279.44;;;23.94;68.78
24858;BME280;12935;50.782;6.074;2023-06-19T09:28:31;99266.50;;;23.70;68.65
24858;BME280;12935;50.782;6.074;2023-06-19T09:31:00;99279.50;;;23.99;68.16
24858;BME280;12935;50.782;6.074;2023-06-19T09:33:28;99277.03;;;24.53;66.70
24858;BME280;12935;50.782;6.074;2023-06-19T09:35:54;99277.78;;;24.85;65.12
24858;BME280;12935;50.782;6.074;2023-06-19T09:38:23;99271.66;;;24.81;64.87
24858;BME280;12935;50.782;6.074;2023-06-19T09:40:49;99266.84;;;24.24;66.32
24858;BME280;12935;50.782;6.074;2023-06-19T09:43:19;99273.19;;;24.51;65.90
24858;BME280;12935;50.782;6.074;2023-06-19T09:45:49;99275.16;;;24.76;63.98
24858;BME280;12935;50.782;6.074;2023-06-19T09:48:18;99277.31;;;25.24;62.18
24858;BME280;12935;50.782;6.074;2023-06-19T09:50:46;99277.44;;;25.46;59.42
24858;BME280;12935;50.782;6.074;2023-06-19T09:53:14;99274.94;;;25.11;61.73
24858;BME280;12935;50.782;6.074;2023-06-19T09:55:39;99278.50;;;24.80;64.72
24858;BME280;12935;50.782;6.074;2023-06-19T09:58:06;99277.53;;;25.20;63.78
24858;BME280;12935;50.782;6.074;2023-06-19T10:00:32;99277.16;;;25.44;63.25
24858;BME280;12935;50.782;6.074;2023-06-19T10:02:57;99272.75;;;25.74;59.30
24858;BME280;12935;50.782;6.074;2023-06-19T10:05:29;99267.44;;;25.76;59.46
24858;BME280;12935;50.782;6.074;2023-06-19T10:07:55;99280.53;;;26.13;58.02
24858;BME280;12935;50.782;6.074;2023-06-19T10:10:26;99277.41;;;25.94;56.24
24858;BME280;12935;50.782;6.074;2023-06-19T10:12:57;99272.16;;;26.30;55.90
24858;BME280;12935;50.782;6.074;2023-06-19T10:15:29;99274.75;;;26.44;54.53
24858;BME280;12935;50.782;6.074;2023-06-19T10:18:04;99270.88;;;26.25;54.98
24858;BME280;12935;50.782;6.074;2023-06-19T10:20:33;99280.50;;;26.18;55.26
24858;BME280;12935;50.782;6.074;2023-06-19T10:23:17;99266.06;;;26.53;54.61
24858;BME280;12935;50.782;6.074;2023-06-19T10:25:56;99273.44;;;26.62;53.96
24858;BME280;12935;50.782;6.074;2023-06-19T10:31:06;99273.22;;;26.71;54.94
24858;BME280;12935;50.782;6.074;2023-06-19T10:33:36;99273.69;;;26.92;53.85
24858;BME280;12935;50.782;6.074;2023-06-19T10:36:14;99272.09;;;27.41;51.07
24858;BME280;12935;50.782;6.074;2023-06-19T10:38:39;99273.81;;;27.55;49.89
24858;BME280;12935;50.782;6.074;2023-06-19T10:41:05;99273.09;;;27.61;49.78
24858;BME280;12935;50.782;6.074;2023-06-19T10:43:30;99275.94;;;27.38;51.11
24858;BME280;12935;50.782;6.074;2023-06-19T10:45:57;99271.28;;;27.63;49.38
24858;BME280;12935;50.782;6.074;2023-06-19T10:48:24;99260.97;;;26.91;51.43
24858;BME280;12935;50.782;6.074;2023-06-19T10:50:50;99271.41;;;26.40;53.18
24858;BME280;12935;50.782;6.074;2023-06-19T10:53:30;99263.41;;;27.45;51.34
24858;BME280;12935;50.782;6.074;2023-06-19T10:56:00;99274.72;;;27.17;50.93
24858;BME280;12935;50.782;6.074;2023-06-19T10:58:29;99261.63;;;28.05;49.24
24858;BME280;12935;50.782;6.074;2023-06-19T11:00:55;99271.91;;;27.97;48.16
24858;BME280;12935;50.782;6.074;2023-06-19T11:03:21;99262.03;;;28.32;47.47
24858;BME280;12935;50.782;6.074;2023-06-19T11:05:48;99250.63;;;28.84;45.40
24858;BME280;12935;50.782;6.074;2023-06-19T11:08:21;99250.28;;;28.93;44.78
24858;BME280;12935;50.782;6.074;2023-06-19T11:10:46;99248.75;;;28.26;45.65
24858;BME280;12935;50.782;6.074;2023-06-19T11:13:19;99256.00;;;29.12;45.63
24858;BME280;12935;50.782;6.074;2023-06-19T11:15:44;99251.94;;;29.56;43.22
24858;BME280;12935;50.782;6.074;2023-06-19T11:18:10;99255.91;;;29.85;42.19
24858;BME280;12935;50.782;6.074;2023-06-19T11:20:49;99259.13;;;30.13;41.88
24858;BME280;12935;50.782;6.074;2023-06-19T11:23:16;99252.78;;;30.26;41.32
24858;BME280;12935;50.782;6.074;2023-06-19T11:25:42;99253.47;;;30.13;41.69
24858;BME280;12935;50.782;6.074;2023-06-19T11:28:15;99245.88;;;29.22;41.53
24858;BME280;12935;50.782;6.074;2023-06-19T11:30:43;99245.13;;;29.46;41.64
24858;BME280;12935;50.782;6.074;2023-06-19T11:33:19;99242.88;;;28.90;42.02
24858;BME280;12935;50.782;6.074;2023-06-19T11:35:48;99251.25;;;29.69;41.72
24858;BME280;12935;50.782;6.074;2023-06-19T11:38:24;99246.38;;;29.69;40.58
24858;BME280;12935;50.782;6.074;2023-06-19T11:40:51;99232.97;;;29.56;41.59
24858;BME280;12935;50.782;6.074;2023-06-19T11:43:35;99241.19;;;29.30;43.94
24858;BME280;12935;50.782;6.074;2023-06-19T11:46:05;99239.47;;;28.67;43.87
24858;BME280;12935;50.782;6.074;2023-06-19T11:48:30;99237.97;;;28.66;43.93
24858;BME280;12935;50.782;6.074;2023-06-19T11:50:56;99241.41;;;28.53;42.99
24858;BME280;12935;50.782;6.074;2023-06-19T11:53:22;99241.53;;;28.37;44.08
24858;BME280;12935;50.782;6.074;2023-06-19T11:55:48;99240.88;;;28.85;43.64
24858;BME280;12935;50.782;6.074;2023-06-19T11:58:14;99246.66;;;29.22;42.35
24858;BME280;12935;50.782;6.074;2023-06-19T12:00:43;99241.88;;;28.57;44.35
24858;BME280;12935;50.782;6.074;2023-06-19T12:03:08;99234.47;;;28.24;43.50
24858;BME280;12935;50.782;6.074;2023-06-19T12:05:35;99242.03;;;27.94;43.82
24858;BME280;12935;50.782;6.074;2023-06-19T12:08:00;99248.81;;;28.51;43.05
24858;BME280;12935;50.782;6.074;2023-06-19T12:10:30;99243.19;;;28.86;42.59
24858;BME280;12935;50.782;6.074;2023-06-19T12:12:56;99254.22;;;28.79;43.52
24858;BME280;12935;50.782;6.074;2023-06-19T12:15:21;99257.91;;;29.22;42.81
24858;BME280;12935;50.782;6.074;2023-06-19T12:17:46;99255.44;;;29.38;41.35
24858;BME280;12935;50.782;6.074;2023-06-19T12:20:12;99249.69;;;29.00;42.31
24858;BME280;12935;50.782;6.074;2023-06-19T12:22:41;99257.53;;;29.31;42.41
24858;BME280;12935;50.782;6.074;2023-06-19T12:25:07;99257.31;;;29.29;42.20
24858;BME280;12935;50.782;6.074;2023-06-19T12:27:33;99252.41;;;29.11;42.01
24858;BME280;12935;50.782;6.074;2023-06-19T12:29:58;99243.59;;;29.20;42.50
24858;BME280;12935;50.782;6.074;2023-06-19T12:32:23;99247.50;;;29.42;40.90
24858;BME280;12935;50.782;6.074;2023-06-19T12:34:49;99237.94;;;29.88;41.03
24858;BME280;12935;50.782;6.074;2023-06-19T12:37:19;99237.00;;;29.80;40.35
24858;BME280;12935;50.782;6.074;2023-06-19T12:39:44;99235.56;;;30.61;39.07
24858;BME280;12935;50.782;6.074;2023-06-19T12:42:09;99231.22;;;30.60;39.24
24858;BME280;12935;50.782;6.074;2023-06-19T12:44:40;99230.84;;;30.19;39.95
24858;BME280;12935;50.782;6.074;2023-06-19T12:47:06;99232.69;;;29.97;39.89
24858;BME280;12935;50.782;6.074;2023-06-19T12:49:32;99228.94;;;29.52;39.95
24858;BME280;12935;50.782;6.074;2023-06-19T12:51:57;99228.19;;;29.70;39.60
24858;BME280;12935;50.782;6.074;2023-06-19T12:54:23;99222.59;;;29.46;39.77